Time;durP1;ratioP1;P1;durP2;ratioP2;P2;SDS_P1;SDS_P2;PMS_P1;PMS_P2;Temp;Humidity;BMP_temperature;BMP_pressure;BME280_temperature;BME280_humidity;BME280_pressure;Samples;Min_cycle;Max_cycle;Signal;HPM_P1;HPM_P2
2023/04/01 00:00:59;;;;;;;6.97;2.40;;;7.80;99.90;;;;;;4471690;28;656416;-71
2023/04/01 00:03:48;;;;;;;6.03;2.40;;;7.70;99.90;;;;;;4443488;28;655615;-72
2023/04/01 00:06:35;;;;;;;7.00;2.50;;;7.80;99.90;;;;;;4442073;28;655841;-72
2023/04/01 00:09:22;;;;;;;6.03;2.33;;;7.70;99.90;;;;;;4469337;28;656272;-71
2023/04/01 00:12:10;;;;;;;5.10;2.07;;;7.70;99.90;;;;;;4462654;28;655566;-72
2023/04/01 00:14:58;;;;;;;9.53;2.90;;;7.60;99.90;;;;;;4444102;28;656473;-71
2023/04/01 00:17:45;;;;;;;9.13;2.87;;;7.60;99.90;;;;;;4453762;28;655544;-72
2023/04/01 00:20:34;;;;;;;7.73;2.77;;;7.50;99.90;;;;;;4463341;28;655565;-71
2023/04/01 00:23:21;;;;;;;5.47;2.30;;;7.40;99.90;;;;;;4436077;28;655536;-71
2023/04/01 00:26:09;;;;;;;7.57;2.60;;;7.30;99.90;;;;;;4463637;28;656281;-71
2023/04/01 00:28:56;;;;;;;7.53;2.77;;;7.30;99.90;;;;;;4442775;28;656277;-70
2023/04/01 00:31:43;;;;;;;7.30;2.67;;;7.20;99.90;;;;;;4468570;28;656608;-72
2023/04/01 00:34:30;;;;;;;7.23;2.73;;;7.30;99.90;;;;;;4434436;28;655829;-72
2023/04/01 00:37:19;;;;;;;10.63;2.77;;;7.20;99.90;;;;;;4450103;28;657436;-72
2023/04/01 00:40:08;;;;;;;4.97;2.80;;;7.20;99.90;;;;;;4421314;28;656769;-71
2023/04/01 00:42:55;;;;;;;6.27;2.97;;;7.20;99.90;;;;;;4440490;28;655730;-72
2023/04/01 00:45:43;;;;;;;6.17;2.67;;;7.10;99.90;;;;;;4462673;28;656586;-72
2023/04/01 00:48:32;;;;;;;8.70;3.27;;;7.10;99.90;;;;;;4445862;28;656955;-72
2023/04/01 00:51:21;;;;;;;11.77;3.67;;;7.10;99.90;;;;;;4460608;28;655238;-72
2023/04/01 00:54:10;;;;;;;8.37;3.83;;;7.00;99.90;;;;;;4440704;28;656915;-72
2023/04/01 00:56:58;;;;;;;8.50;4.33;;;7.00;99.90;;;;;;4444402;28;657267;-71
2023/04/01 00:59:47;;;;;;;11.47;4.40;;;6.90;99.90;;;;;;4439794;28;655214;-72
2023/04/01 01:02:34;;;;;;;10.73;4.73;;;7.00;99.90;;;;;;4458000;28;656425;-71
2023/04/01 01:05:26;;;;;;;13.97;5.60;;;6.90;99.90;;;;;;4434355;28;656615;-72
2023/04/01 01:08:16;;;;;;;10.30;5.18;;;7.00;99.90;;;;;;4431556;28;657842;-72
2023/04/01 01:11:04;;;;;;;9.70;4.90;;;7.10;99.90;;;;;;4431058;28;657785;-71
2023/04/01 01:13:55;;;;;;;10.03;5.20;;;7.20;99.90;;;;;;4426277;28;655612;-72
2023/04/01 01:16:44;;;;;;;9.33;4.33;;;7.30;99.90;;;;;;4439322;28;657654;-72
2023/04/01 01:19:50;;;;;;;12.00;4.83;;;7.30;99.90;;;;;;4439691;28;656342;-72
2023/04/01 01:22:41;;;;;;;9.80;4.50;;;7.40;99.90;;;;;;4406809;28;657940;-72
2023/04/01 01:25:33;;;;;;;11.77;4.47;;;7.40;99.90;;;;;;4416114;28;656441;-71
2023/04/01 01:28:30;;;;;;;11.80;5.03;;;7.50;99.90;;;;;;4426032;28;657163;-71
2023/04/01 01:31:20;;;;;;;10.67;5.10;;;7.60;99.90;;;;;;4430573;27;656752;-72
2023/04/01 01:34:13;;;;;;;9.80;4.47;;;7.60;99.90;;;;;;4431226;28;657068;-71
2023/04/01 01:37:03;;;;;;;9.13;4.13;;;7.60;99.90;;;;;;4423397;28;656189;-71
2023/04/01 01:39:51;;;;;;;14.10;5.18;;;7.50;99.90;;;;;;4437161;28;656293;-72
2023/04/01 01:42:40;;;;;;;11.73;5.23;;;7.50;99.90;;;;;;4456095;28;657361;-72
2023/04/01 01:45:27;;;;;;;10.50;4.75;;;7.50;99.90;;;;;;4438392;28;656614;-72
2023/04/01 01:48:15;;;;;;;10.30;4.63;;;7.50;99.90;;;;;;4460133;28;656445;-72
2023/04/01 01:51:03;;;;;;;11.43;5.17;;;7.50;99.90;;;;;;4460113;28;657926;-73
2023/04/01 01:53:52;;;;;;;9.07;5.37;;;7.50;99.90;;;;;;4439331;28;656921;-72
2023/04/01 01:56:39;;;;;;;15.43;5.53;;;7.40;99.90;;;;;;4458241;28;655384;-72
2023/04/01 01:59:26;;;;;;;12.03;5.80;;;7.40;99.90;;;;;;4442734;28;657020;-72
2023/04/01 02:02:13;;;;;;;11.47;4.67;;;7.40;99.90;;;;;;4462831;28;657527;-72
2023/04/01 02:05:01;;;;;;;9.47;4.97;;;7.40;99.90;;;;;;4445566;27;657207;-72
2023/04/01 02:07:53;;;;;;;14.00;5.63;;;7.40;99.90;;;;;;4462072;28;656649;-72
2023/04/01 02:10:43;;;;;;;10.40;5.33;;;7.30;99.90;;;;;;4409659;28;656961;-72
2023/04/01 02:13:32;;;;;;;12.05;5.28;;;7.30;99.90;;;;;;4432752;28;656330;-72
2023/04/01 02:16:21;;;;;;;11.60;5.20;;;7.20;99.90;;;;;;4456261;28;657100;-72
2023/04/01 02:19:09;;;;;;;8.17;4.17;;;7.20;99.90;;;;;;4433722;28;657157;-72
2023/04/01 02:21:57;;;;;;;7.50;4.20;;;7.20;99.90;;;;;;4441681;28;655549;-72
2023/04/01 02:24:46;;;;;;;6.70;3.80;;;7.20;99.90;;;;;;4450319;28;655978;-72
2023/04/01 02:27:35;;;;;;;5.90;3.80;;;7.20;99.90;;;;;;4461937;28;656357;-72
2023/04/01 02:30:22;;;;;;;5.37;3.40;;;7.20;99.90;;;;;;4440306;28;656343;-72
2023/04/01 02:33:09;;;;;;;8.53;3.93;;;7.20;99.90;;;;;;4468179;28;655571;-71
2023/04/01 02:35:56;;;;;;;8.00;3.50;;;7.10;99.90;;;;;;4442519;28;656008;-72
2023/04/01 02:38:44;;;;;;;6.60;3.60;;;7.20;99.90;;;;;;4463041;28;655738;-72
2023/04/01 02:41:31;;;;;;;6.07;3.47;;;7.10;99.90;;;;;;4434235;28;655846;-72
2023/04/01 02:44:20;;;;;;;7.17;3.90;;;7.20;99.90;;;;;;4442136;28;657016;-71
2023/04/01 02:47:07;;;;;;;6.17;3.57;;;7.10;99.90;;;;;;4437021;28;656429;-71
2023/04/01 02:49:58;;;;;;;7.63;3.70;;;7.20;99.90;;;;;;4460906;28;655691;-72
2023/04/01 02:52:45;;;;;;;8.90;3.77;;;7.20;99.90;;;;;;4441652;28;656312;-72
2023/04/01 02:55:32;;;;;;;7.93;3.77;;;7.20;99.90;;;;;;4464542;28;656121;-71
2023/04/01 02:58:20;;;;;;;9.97;4.13;;;7.20;99.90;;;;;;4454499;28;655910;-72
2023/04/01 03:01:09;;;;;;;10.33;3.63;;;7.20;99.90;;;;;;4457334;28;656015;-71
2023/04/01 03:03:56;;;;;;;5.77;3.23;;;7.30;99.90;;;;;;4444434;28;657464;-72
2023/04/01 03:06:43;;;;;;;6.53;3.80;;;7.40;99.90;;;;;;4462845;28;656113;-71
2023/04/01 03:09:31;;;;;;;9.90;3.77;;;7.40;99.90;;;;;;4443098;28;655313;-72
2023/04/01 03:12:18;;;;;;;10.03;4.03;;;7.40;99.90;;;;;;4461159;28;656509;-72
2023/04/01 03:15:06;;;;;;;11.43;3.70;;;7.40;99.90;;;;;;4446216;28;656630;-72
2023/04/01 03:17:55;;;;;;;9.23;3.83;;;7.40;99.90;;;;;;4463157;28;657177;-71
2023/04/01 03:20:42;;;;;;;9.90;4.17;;;7.40;99.90;;;;;;4440379;28;655910;-72
2023/04/01 03:23:29;;;;;;;10.30;5.00;;;7.30;99.90;;;;;;4466265;28;654815;-72
2023/04/01 03:26:16;;;;;;;9.33;4.80;;;7.30;99.90;;;;;;4430482;28;657979;-71
2023/04/01 03:29:04;;;;;;;13.63;5.10;;;7.30;99.90;;;;;;4460696;28;655484;-71
2023/04/01 03:31:51;;;;;;;12.87;5.77;;;7.30;99.90;;;;;;4442780;28;656623;-72
2023/04/01 03:34:40;;;;;;;10.33;5.70;;;7.30;99.90;;;;;;4459535;28;658119;-72
2023/04/01 03:37:27;;;;;;;8.90;5.00;;;7.40;99.90;;;;;;4438581;28;658318;-71
2023/04/01 03:40:14;;;;;;;12.40;5.70;;;7.40;99.90;;;;;;4465967;28;655618;-72
2023/04/01 03:43:02;;;;;;;12.87;5.07;;;7.40;99.90;;;;;;4438209;28;657009;-71
2023/04/01 03:45:49;;;;;;;11.00;5.25;;;7.40;99.90;;;;;;4462249;28;656187;-72
2023/04/01 03:48:37;;;;;;;12.23;5.77;;;7.40;99.90;;;;;;4436572;28;657482;-72
2023/04/01 03:51:25;;;;;;;11.70;5.60;;;7.30;99.90;;;;;;4459286;28;656261;-72
2023/04/01 03:54:12;;;;;;;11.57;5.37;;;7.30;99.90;;;;;;4426263;28;657409;-72
2023/04/01 03:57:00;;;;;;;11.73;5.50;;;7.40;99.90;;;;;;4453449;28;656897;-72
2023/04/01 03:59:47;;;;;;;11.50;5.23;;;7.30;99.90;;;;;;4455173;28;658422;-71
2023/04/01 04:02:36;;;;;;;11.63;5.27;;;7.40;99.90;;;;;;4455315;28;656230;-72
2023/04/01 04:05:23;;;;;;;11.87;4.90;;;7.40;99.90;;;;;;4455054;28;658111;-72
2023/04/01 04:08:12;;;;;;;11.73;5.40;;;7.50;99.90;;;;;;4440064;28;657187;-72
2023/04/01 04:10:59;;;;;;;11.73;5.30;;;7.50;99.90;;;;;;4462988;28;656893;-71
2023/04/01 04:13:47;;;;;;;10.63;5.00;;;7.50;99.90;;;;;;4440140;28;656821;-72
2023/04/01 04:16:37;;;;;;;7.50;4.50;;;7.50;99.90;;;;;;4462528;28;656458;-72
2023/04/01 04:19:24;;;;;;;10.60;4.70;;;7.50;99.90;;;;;;4440748;28;656743;-72
2023/04/01 04:22:11;;;;;;;10.93;4.43;;;7.40;99.90;;;;;;4435091;28;657449;-72
2023/04/01 04:25:00;;;;;;;10.23;4.53;;;7.50;99.90;;;;;;4467165;28;657455;-72
2023/04/01 04:27:47;;;;;;;7.23;3.90;;;7.40;99.90;;;;;;4427771;28;658214;-72
2023/04/01 04:30:34;;;;;;;7.47;3.87;;;7.50;99.90;;;;;;4447749;28;656342;-71
2023/04/01 04:33:22;;;;;;;14.50;3.73;;;7.50;99.90;;;;;;4436845;28;655401;-72
2023/04/01 04:36:09;;;;;;;6.77;3.10;;;7.60;99.90;;;;;;4459864;28;656745;-73
2023/04/01 04:38:57;;;;;;;8.73;3.40;;;7.60;99.90;;;;;;4436829;28;655879;-72
2023/04/01 04:41:47;;;;;;;8.83;4.03;;;7.60;99.90;;;;;;4457394;28;655564;-72
2023/04/01 04:44:34;;;;;;;10.03;3.70;;;7.70;99.90;;;;;;4453772;28;655714;-71
2023/04/01 04:47:21;;;;;;;9.37;3.17;;;7.80;99.90;;;;;;4441014;28;656903;-72
2023/04/01 04:50:09;;;;;;;8.95;3.90;;;7.80;99.90;;;;;;4459852;28;656046;-72
2023/04/01 04:52:56;;;;;;;11.33;3.20;;;7.80;99.90;;;;;;4433077;28;655606;-72
2023/04/01 04:55:44;;;;;;;7.17;3.90;;;7.80;99.90;;;;;;4460810;28;657264;-72
2023/04/01 04:58:33;;;;;;;9.33;3.70;;;7.90;99.90;;;;;;4447111;28;656047;-71
2023/04/01 05:01:20;;;;;;;12.90;4.40;;;7.80;99.90;;;;;;4443685;28;655540;-72
2023/04/01 05:04:07;;;;;;;8.07;3.47;;;7.90;99.90;;;;;;4443863;28;657817;-72
2023/04/01 05:06:55;;;;;;;8.33;3.83;;;7.90;99.90;;;;;;4452205;28;656490;-72
2023/04/01 05:09:43;;;;;;;10.90;3.83;;;8.00;99.90;;;;;;4460334;28;655467;-72
2023/04/01 05:12:32;;;;;;;7.40;3.80;;;8.00;99.90;;;;;;4448817;28;656870;-72
2023/04/01 05:15:21;;;;;;;10.67;4.63;;;8.00;99.90;;;;;;4467337;28;656179;-72
2023/04/01 05:18:08;;;;;;;7.37;3.40;;;8.00;99.90;;;;;;4441222;28;657860;-72
2023/04/01 05:20:55;;;;;;;9.32;3.88;;;8.00;99.90;;;;;;4448451;28;656282;-72
2023/04/01 05:23:43;;;;;;;9.07;4.13;;;8.00;99.90;;;;;;4452466;28;656914;-72
2023/04/01 05:26:30;;;;;;;10.93;3.77;;;8.00;99.90;;;;;;4458576;28;655993;-72
2023/04/01 05:29:17;;;;;;;7.53;4.00;;;7.90;99.90;;;;;;4464680;28;657373;-72
2023/04/01 05:32:07;;;;;;;10.53;3.93;;;7.90;99.90;;;;;;4463495;28;654896;-72
2023/04/01 05:34:54;;;;;;;8.20;3.97;;;8.00;99.90;;;;;;4459513;28;656664;-71
2023/04/01 05:37:41;;;;;;;9.23;3.83;;;8.00;99.90;;;;;;4443299;28;655394;-71
2023/04/01 05:40:29;;;;;;;12.93;4.13;;;8.00;99.90;;;;;;4457052;28;656174;-72
2023/04/01 05:43:16;;;;;;;10.75;4.03;;;8.10;99.90;;;;;;4441563;28;656178;-72
2023/04/01 05:46:03;;;;;;;11.37;3.70;;;8.10;99.90;;;;;;4467078;28;657040;-72
2023/04/01 05:48:52;;;;;;;9.77;3.90;;;8.10;99.90;;;;;;4441019;28;656850;-72
2023/04/01 05:51:39;;;;;;;11.33;4.43;;;8.10;99.90;;;;;;4461870;28;655779;-71
2023/04/01 05:54:26;;;;;;;11.67;3.93;;;8.10;99.90;;;;;;4440450;28;656783;-72
2023/04/01 05:57:14;;;;;;;8.87;4.03;;;8.20;99.90;;;;;;4458639;28;657704;-72
2023/04/01 06:00:01;;;;;;;9.27;3.73;;;8.20;99.90;;;;;;4442971;28;656848;-72
2023/04/01 06:02:48;;;;;;;10.13;3.73;;;8.30;99.90;;;;;;4462962;28;655657;-72
2023/04/01 06:05:40;;;;;;;8.23;4.10;;;8.30;99.90;;;;;;4443461;28;657046;-72
2023/04/01 06:08:27;;;;;;;6.80;3.63;;;8.30;99.90;;;;;;4436171;28;657027;-73
2023/04/01 06:11:20;;;;;;;10.40;3.97;;;8.50;99.90;;;;;;4457200;28;655857;-72
2023/04/01 06:14:17;;;;;;;6.97;3.53;;;8.40;99.90;;;;;;4431850;28;657655;-72
2023/04/01 06:17:18;;;;;;;6.57;3.57;;;8.50;99.90;;;;;;4436870;28;655937;-72
2023/04/01 06:20:07;;;;;;;6.40;2.70;;;8.70;99.90;;;;;;4426416;28;655702;-71
2023/04/01 06:23:10;;;;;;;12.30;3.60;;;8.60;99.90;;;;;;4453026;28;655871;-72
2023/04/01 06:26:06;;;;;;;8.73;3.63;;;8.60;99.90;;;;;;4431716;28;657887;-72
2023/04/01 06:29:18;;;;;;;11.33;3.90;;;8.60;99.90;;;;;;4436734;28;656115;-72
2023/04/01 06:32:22;;;;;;;9.27;3.13;;;8.60;99.90;;;;;;4415316;28;656553;-72
2023/04/01 06:35:25;;;;;;;8.03;3.23;;;8.60;99.90;;;;;;4434544;28;655774;-71
2023/04/01 06:38:36;;;;;;;7.23;2.93;;;8.80;99.90;;;;;;4413119;28;655708;-72
2023/04/01 06:41:39;;;;;;;7.17;3.40;;;8.60;99.90;;;;;;4421282;28;656623;-71
2023/04/01 06:44:31;;;;;;;7.83;3.00;;;8.70;99.90;;;;;;4401321;28;656519;-73
2023/04/01 06:47:28;;;;;;;13.40;2.97;;;8.70;99.90;;;;;;4430619;28;656196;-73
2023/04/01 06:50:21;;;;;;;7.07;2.63;;;8.90;99.90;;;;;;4415617;28;657452;-72
2023/04/01 06:53:11;;;;;;;9.50;2.60;;;8.90;99.90;;;;;;4424636;28;656602;-72
2023/04/01 06:56:01;;;;;;;7.37;3.00;;;9.00;99.90;;;;;;4435682;28;656245;-73
2023/04/01 06:58:50;;;;;;;8.17;2.63;;;9.00;99.90;;;;;;4437704;28;655512;-72
2023/04/01 07:01:39;;;;;;;7.87;2.87;;;8.90;99.90;;;;;;4442199;28;655915;-72
2023/04/01 07:04:27;;;;;;;8.70;3.10;;;8.90;99.90;;;;;;4430960;28;655015;-73
2023/04/01 07:07:17;;;;;;;14.10;2.23;;;8.90;99.90;;;;;;4461030;28;655732;-72
2023/04/01 07:10:06;;;;;;;11.53;3.10;;;8.90;99.90;;;;;;4428958;28;656715;-73
2023/04/01 07:12:56;;;;;;;7.90;2.67;;;8.90;99.90;;;;;;4425376;28;656972;-73
2023/04/01 07:15:44;;;;;;;6.47;2.83;;;8.90;99.90;;;;;;4428629;28;656621;-73
2023/04/01 07:18:34;;;;;;;8.37;2.93;;;9.00;99.90;;;;;;4421203;28;655331;-73
2023/04/01 07:21:25;;;;;;;8.30;3.20;;;9.10;99.90;;;;;;4443265;28;655509;-73
2023/04/01 07:32:08;;;;;;;9.57;3.43;;;9.70;99.90;;;;;;4410451;28;656520;-73
2023/04/01 07:35:08;;;;;;;7.18;2.88;;;9.60;99.90;;;;;;4412403;28;656025;-73
2023/04/01 07:38:19;;;;;;;6.53;2.70;;;9.90;99.90;;;;;;4420981;28;655042;-73
2023/04/01 07:41:09;;;;;;;8.17;2.70;;;9.80;99.90;;;;;;4420709;28;656275;-72
2023/04/01 07:44:01;;;;;;;5.77;2.80;;;9.80;99.90;;;;;;4419598;28;656075;-73
2023/04/01 07:46:56;;;;;;;6.30;2.60;;;10.00;99.90;;;;;;4435071;28;656977;-73
2023/04/01 07:49:49;;;;;;;7.70;2.77;;;9.60;99.90;;;;;;4431731;28;656887;-72
2023/04/01 07:52:39;;;;;;;6.97;2.47;;;9.70;99.90;;;;;;4413461;28;656847;-73
2023/04/01 07:55:29;;;;;;;8.05;2.20;;;9.70;99.90;;;;;;4431343;28;656303;-73
2023/04/01 07:58:19;;;;;;;8.83;2.60;;;9.80;99.90;;;;;;4435490;28;654902;-73
2023/04/01 08:01:08;;;;;;;9.60;2.50;;;10.00;99.90;;;;;;4443181;28;655935;-73
2023/04/01 08:04:06;;;;;;;5.23;2.50;;;10.40;99.90;;;;;;4447153;28;656436;-72
2023/04/01 08:06:56;;;;;;;6.37;2.37;;;10.30;99.90;;;;;;4436453;28;656748;-72
2023/04/01 08:09:45;;;;;;;8.63;2.83;;;10.40;99.90;;;;;;4424942;28;657289;-71
2023/04/01 08:12:37;;;;;;;7.13;2.53;;;10.40;99.90;;;;;;4424441;28;656793;-72
2023/04/01 08:15:27;;;;;;;7.47;2.67;;;10.20;99.90;;;;;;4415417;28;658440;-72
2023/04/01 08:18:20;;;;;;;8.07;2.73;;;9.90;99.90;;;;;;4449664;28;656802;-72
2023/04/01 08:21:11;;;;;;;6.90;2.67;;;9.80;99.90;;;;;;4443703;28;655161;-72
2023/04/01 08:23:59;;;;;;;5.63;2.33;;;9.70;99.90;;;;;;4442014;28;656147;-72
2023/04/01 08:26:47;;;;;;;6.33;2.60;;;9.40;99.90;;;;;;4431144;28;655462;-72
2023/04/01 08:29:37;;;;;;;7.40;2.87;;;9.40;99.90;;;;;;4458744;28;656055;-71
2023/04/01 08:32:26;;;;;;;6.97;3.13;;;9.60;99.90;;;;;;4438623;28;656278;-72
2023/04/01 08:35:17;;;;;;;7.10;3.00;;;9.70;99.90;;;;;;4431286;28;656392;-71
2023/04/01 08:38:10;;;;;;;7.93;3.10;;;9.70;99.90;;;;;;4445841;28;655846;-71
2023/04/01 08:41:00;;;;;;;11.77;3.20;;;9.90;99.90;;;;;;4418385;28;656153;-71
2023/04/01 08:44:05;;;;;;;8.73;3.23;;;9.80;99.90;;;;;;4427145;28;657310;-72
2023/04/01 08:47:11;;;;;;;6.47;3.13;;;9.70;99.90;;;;;;4416453;28;656533;-71
2023/04/01 08:50:34;;;;;;;9.60;3.57;;;10.00;99.90;;;;;;4435003;28;656203;-72
2023/04/01 08:53:26;;;;;;;6.87;3.10;;;10.00;99.90;;;;;;4415539;28;657401;-71
2023/04/01 08:56:16;;;;;;;8.30;3.63;;;9.80;99.90;;;;;;4441710;28;656693;-71
2023/04/01 08:59:18;;;;;;;9.43;3.30;;;9.80;99.90;;;;;;4432370;28;657471;-72
2023/04/01 09:02:24;;;;;;;9.47;3.80;;;9.70;99.90;;;;;;4408451;28;655610;-71
2023/04/01 09:05:41;;;;;;;7.93;3.77;;;9.70;99.90;;;;;;4438685;28;655817;-71
2023/04/01 09:08:38;;;;;;;9.53;3.40;;;9.60;99.90;;;;;;4402291;28;655998;-70
2023/04/01 09:11:31;;;;;;;4.87;2.20;;;9.60;99.90;;;;;;4407265;28;656891;-71
2023/04/01 09:14:53;;;;;;;4.65;2.60;;;9.40;99.90;;;;;;4442275;28;656101;-72
2023/04/01 09:18:09;;;;;;;4.63;2.00;;;9.40;99.90;;;;;;4426510;27;655950;-71
2023/04/01 09:21:24;;;;;;;4.73;2.30;;;9.00;99.90;;;;;;4442486;28;655691;-71
2023/04/01 09:24:25;;;;;;;6.70;2.80;;;9.30;99.90;;;;;;4431921;28;656737;-74
2023/04/01 09:27:19;;;;;;;9.73;3.60;;;9.20;99.90;;;;;;4416977;28;655981;-72
2023/04/01 09:30:49;;;;;;;8.17;3.27;;;9.20;99.90;;;;;;4444023;28;655441;-71
2023/04/01 09:34:21;;;;;;;7.20;3.97;;;9.30;99.90;;;;;;4428558;28;655638;-70
2023/04/01 09:37:19;;;;;;;7.97;4.10;;;9.70;99.90;;;;;;4436774;28;655840;-70
2023/04/01 09:40:18;;;;;;;5.93;3.87;;;9.80;99.90;;;;;;4444711;28;655738;-70
2023/04/01 09:43:25;;;;;;;7.57;4.27;;;10.00;99.90;;;;;;4439839;28;655558;-71
2023/04/01 09:46:19;;;;;;;8.13;4.17;;;10.10;99.90;;;;;;4410285;28;657088;-71
2023/04/01 09:49:27;;;;;;;6.83;3.87;;;9.90;99.90;;;;;;4401919;28;657132;-73
2023/04/01 09:52:25;;;;;;;9.57;3.67;;;10.20;99.90;;;;;;4439828;28;655540;-74
2023/04/01 09:55:30;;;;;;;6.90;3.67;;;10.60;99.90;;;;;;4406306;28;656304;-74
2023/04/01 09:58:56;;;;;;;11.10;4.13;;;10.40;99.90;;;;;;4426666;28;656453;-73
2023/04/01 10:02:03;;;;;;;10.67;4.20;;;10.40;99.90;;;;;;4423314;28;657810;-73
2023/04/01 10:05:20;;;;;;;7.70;3.70;;;10.00;99.90;;;;;;4420084;28;658050;-73
2023/04/01 10:08:29;;;;;;;8.82;3.90;;;9.90;99.90;;;;;;4402489;28;657131;-72
2023/04/01 10:11:46;;;;;;;8.00;4.10;;;9.70;99.90;;;;;;4420072;28;656485;-73
2023/04/01 10:14:57;;;;;;;9.23;4.80;;;9.80;99.90;;;;;;4444031;28;656349;-72
2023/04/01 10:18:08;;;;;;;11.23;5.53;;;10.20;99.90;;;;;;4437034;28;655552;-70
2023/04/01 10:21:01;;;;;;;9.27;5.70;;;10.50;99.90;;;;;;4428710;28;657533;-72
2023/04/01 10:24:21;;;;;;;9.47;6.03;;;11.10;99.90;;;;;;4432059;28;657119;-71
2023/04/01 10:27:28;;;;;;;4.90;3.50;;;10.80;99.90;;;;;;4414797;28;656698;-72
2023/04/01 10:30:33;;;;;;;8.03;5.07;;;10.90;99.90;;;;;;4412714;28;656704;-72
2023/04/01 10:33:44;;;;;;;8.23;5.20;;;11.10;99.90;;;;;;4419254;28;658030;-71
2023/04/01 10:36:51;;;;;;;6.03;3.97;;;10.70;99.90;;;;;;4411941;28;656946;-73
2023/04/01 10:40:05;;;;;;;6.83;4.20;;;10.30;99.90;;;;;;4410690;28;657134;-72
2023/04/01 10:43:25;;;;;;;8.67;4.80;;;9.90;99.90;;;;;;4406477;28;656990;-73
2023/04/01 10:46:44;;;;;;;7.67;5.03;;;9.70;99.90;;;;;;4403408;28;656861;-71
2023/04/01 10:49:54;;;;;;;8.43;5.43;;;9.90;99.90;;;;;;4400819;28;656587;-73
2023/04/01 10:53:13;;;;;;;8.43;5.70;;;10.30;99.90;;;;;;4427194;28;655637;-75
2023/04/01 10:56:27;;;;;;;10.40;7.00;;;10.70;99.90;;;;;;4430871;28;657030;-75
2023/04/01 10:59:49;;;;;;;9.57;7.17;;;11.50;99.90;;;;;;4436835;28;658021;-75
2023/04/01 11:03:22;;;;;;;5.72;4.75;;;11.80;99.90;;;;;;4432856;28;656970;-74
2023/04/01 11:06:41;;;;;;;7.63;4.60;;;11.60;99.90;;;;;;4431525;28;656257;-73
2023/04/01 11:10:05;;;;;;;6.10;3.77;;;11.30;99.90;;;;;;4372446;28;657163;-73
2023/04/01 11:13:31;;;;;;;9.33;4.30;;;10.80;99.90;;;;;;4424256;28;656261;-73
2023/04/01 11:16:41;;;;;;;8.73;4.60;;;10.50;99.90;;;;;;4360987;28;657356;-72
2023/04/01 11:20:01;;;;;;;8.23;4.23;;;10.40;99.90;;;;;;4426134;28;656650;-74
2023/04/01 11:22:58;;;;;;;5.67;3.63;;;10.40;99.90;;;;;;4416454;28;656474;-71
2023/04/01 11:26:06;;;;;;;7.13;3.10;;;10.20;99.90;;;;;;4427624;28;657096;-71
2023/04/01 11:29:02;;;;;;;6.83;3.87;;;10.00;99.90;;;;;;4435646;28;656756;-71
2023/04/01 11:31:56;;;;;;;5.60;3.80;;;9.90;99.90;;;;;;4427770;28;657218;-71
2023/04/01 11:34:52;;;;;;;9.47;4.07;;;9.90;99.90;;;;;;4435933;28;655847;-72
2023/04/01 11:37:41;;;;;;;6.07;4.17;;;10.00;99.90;;;;;;4440963;28;656162;-71
2023/04/01 11:40:31;;;;;;;5.47;3.80;;;10.40;99.90;;;;;;4412669;28;656932;-71
2023/04/01 11:43:22;;;;;;;6.35;3.50;;;10.80;99.90;;;;;;4420439;28;657487;-71
2023/04/01 11:46:12;;;;;;;5.13;3.33;;;11.10;99.90;;;;;;4428387;28;656931;-70
2023/04/01 11:49:05;;;;;;;4.17;2.90;;;11.10;99.90;;;;;;4454447;28;656966;-71
2023/04/01 11:51:58;;;;;;;5.40;3.50;;;11.50;99.90;;;;;;4421292;28;658132;-71
2023/04/01 11:55:13;;;;;;;4.37;3.20;;;11.10;99.90;;;;;;4422205;28;657100;-71
2023/04/01 11:58:17;;;;;;;4.78;2.90;;;11.30;99.90;;;;;;4423024;28;657141;-71
2023/04/01 12:01:22;;;;;;;4.93;2.37;;;11.00;99.90;;;;;;4433453;28;656523;-72
2023/04/01 12:04:36;;;;;;;3.50;2.20;;;11.10;99.90;;;;;;4428489;28;656831;-71
2023/04/01 12:07:28;;;;;;;4.33;2.07;;;11.30;99.90;;;;;;4435354;28;656843;-72
2023/04/01 12:10:18;;;;;;;2.40;1.67;;;11.00;99.90;;;;;;4413521;28;657615;-72
2023/04/01 12:13:08;;;;;;;3.67;2.07;;;10.70;99.90;;;;;;4437121;28;656913;-71
2023/04/01 12:16:02;;;;;;;4.10;2.60;;;10.50;99.90;;;;;;4421170;28;656442;-70
2023/04/01 12:18:51;;;;;;;4.50;2.80;;;10.70;99.90;;;;;;4434357;28;656253;-72
2023/04/01 12:21:43;;;;;;;4.93;2.57;;;11.00;99.90;;;;;;4436577;28;656516;-72
2023/04/01 12:24:41;;;;;;;5.00;3.03;;;11.40;99.90;;;;;;4419663;28;657122;-71
2023/04/01 12:27:37;;;;;;;6.30;2.93;;;12.10;99.90;;;;;;4437986;28;656716;-71
2023/04/01 12:30:47;;;;;;;7.37;3.23;;;12.30;99.90;;;;;;4435453;28;656542;-71
2023/04/01 12:33:49;;;;;;;4.83;3.00;;;12.10;99.90;;;;;;4425472;28;658047;-72
2023/04/01 12:36:43;;;;;;;6.07;3.43;;;11.70;99.90;;;;;;4429005;28;656724;-71
2023/04/01 12:39:39;;;;;;;7.10;3.72;;;11.30;99.90;;;;;;4412827;28;657149;-71
2023/04/01 12:42:45;;;;;;;8.37;4.67;;;11.10;99.90;;;;;;4432102;28;656553;-72
2023/04/01 12:45:32;;;;;;;8.67;4.63;;;10.90;99.90;;;;;;4412766;28;657296;-71
2023/04/01 12:48:42;;;;;;;7.37;5.10;;;10.60;99.90;;;;;;4446926;28;656478;-72
2023/04/01 12:51:53;;;;;;;7.07;4.17;;;10.40;99.90;;;;;;4417742;28;657144;-71
2023/04/01 12:54:59;;;;;;;4.50;2.80;;;10.40;99.90;;;;;;4426370;28;656877;-71
2023/04/01 12:58:09;;;;;;;4.60;2.80;;;10.40;99.90;;;;;;4406714;28;658161;-71
2023/04/01 13:01:04;;;;;;;4.83;2.50;;;10.60;99.90;;;;;;4438475;28;657039;-71
2023/04/01 13:04:06;;;;;;;3.27;1.60;;;10.70;99.90;;;;;;4418660;28;656812;-72
2023/04/01 13:07:11;;;;;;;3.17;1.93;;;10.60;99.90;;;;;;4440723;28;656663;-72
2023/04/01 13:10:02;;;;;;;2.00;1.50;;;10.50;99.90;;;;;;4442118;28;656983;-71
2023/04/01 13:13:15;;;;;;;2.13;1.30;;;10.40;99.90;;;;;;4431302;28;656661;-73
2023/04/01 13:16:04;;;;;;;2.23;1.50;;;10.20;99.90;;;;;;4401823;28;656936;-74
2023/04/01 13:18:57;;;;;;;4.27;2.20;;;10.20;99.90;;;;;;4437766;28;656435;-71
2023/04/01 13:21:51;;;;;;;3.57;2.20;;;10.70;99.90;;;;;;4424970;28;656465;-71
2023/04/01 13:24:43;;;;;;;6.47;2.90;;;11.10;99.90;;;;;;4428267;28;657308;-71
2023/04/01 13:27:32;;;;;;;3.73;2.20;;;11.30;99.90;;;;;;4412712;28;656854;-70
2023/04/01 13:30:25;;;;;;;5.93;3.17;;;11.40;99.90;;;;;;4457182;28;657644;-70
2023/04/01 13:33:15;;;;;;;4.87;2.90;;;11.50;99.90;;;;;;4414118;28;656957;-70
2023/04/01 13:36:09;;;;;;;4.93;2.85;;;11.00;99.90;;;;;;4429258;28;657734;-70
2023/04/01 13:39:16;;;;;;;4.07;2.80;;;11.20;99.90;;;;;;4419666;28;656683;-70
2023/04/01 13:42:14;;;;;;;4.67;2.63;;;11.00;99.90;;;;;;4434534;28;657012;-70
2023/04/01 13:45:03;;;;;;;4.53;2.87;;;10.70;99.90;;;;;;4435231;28;656714;-70
2023/04/01 13:48:28;;;;;;;8.75;2.90;;;10.60;99.90;;;;;;4439637;28;656935;-70
2023/04/01 13:51:43;;;;;;;7.50;2.73;;;10.60;99.90;;;;;;4409804;28;656392;-70
2023/04/01 13:54:54;;;;;;;4.67;2.80;;;10.60;99.90;;;;;;4408052;28;656447;-70
2023/04/01 13:57:54;;;;;;;6.17;3.47;;;10.50;99.90;;;;;;4438209;28;657478;-70
2023/04/01 14:00:46;;;;;;;5.33;3.27;;;10.50;99.90;;;;;;4434877;28;656816;-70
2023/04/01 14:03:43;;;;;;;5.83;3.43;;;10.60;99.90;;;;;;4438719;28;656915;-70
2023/04/01 14:06:35;;;;;;;6.22;2.97;;;10.70;99.90;;;;;;4411546;28;656708;-70
2023/04/01 14:09:50;;;;;;;7.50;3.60;;;10.60;99.90;;;;;;4439286;28;657382;-70
2023/04/01 14:12:40;;;;;;;9.80;4.63;;;10.90;99.90;;;;;;4408054;28;656629;-71
2023/04/01 14:15:43;;;;;;;8.00;3.87;;;10.90;99.90;;;;;;4420137;28;657348;-70
2023/04/01 14:18:54;;;;;;;8.37;4.30;;;10.90;99.90;;;;;;4420606;28;656981;-70
2023/04/01 14:21:43;;;;;;;8.63;5.07;;;10.90;99.90;;;;;;4416962;28;656941;-70
2023/04/01 14:24:45;;;;;;;7.43;4.88;;;10.70;99.90;;;;;;4437668;28;657189;-70
2023/04/01 14:27:45;;;;;;;8.23;5.30;;;10.60;99.90;;;;;;4407972;28;657132;-70
2023/04/01 14:30:44;;;;;;;8.50;5.27;;;10.40;99.90;;;;;;4414554;27;657160;-70
2023/04/01 14:33:36;;;;;;;14.03;6.60;;;10.60;99.90;;;;;;4442185;28;657071;-70
2023/04/01 14:37:02;;;;;;;11.40;6.22;;;10.50;99.90;;;;;;4436414;27;657993;-70
2023/04/01 14:39:59;;;;;;;10.27;5.77;;;10.40;99.90;;;;;;4424885;27;657279;-70
2023/04/01 14:43:04;;;;;;;12.07;6.63;;;10.40;99.90;;;;;;4424439;28;657797;-68
2023/04/01 14:46:20;;;;;;;7.63;4.63;;;10.20;99.90;;;;;;4408755;28;658552;-69
2023/04/01 14:49:16;;;;;;;5.47;3.07;;;9.80;99.90;;;;;;4438164;28;656570;-69
2023/04/01 14:52:10;;;;;;;6.13;3.40;;;9.60;99.90;;;;;;4443321;28;655585;-70
2023/04/01 14:54:58;;;;;;;4.80;2.60;;;9.50;99.90;;;;;;4441516;28;656331;-69
2023/04/01 14:57:45;;;;;;;4.32;2.20;;;9.40;99.90;;;;;;4429282;28;655879;-69
2023/04/01 15:00:49;;;;;;;3.73;2.30;;;9.30;99.90;;;;;;4459992;28;655853;-69
2023/04/01 15:03:39;;;;;;;3.77;2.20;;;9.40;99.90;;;;;;4441088;28;655454;-69
2023/04/01 15:07:02;;;;;;;3.90;2.30;;;9.20;99.90;;;;;;4437188;28;655550;-70
2023/04/01 15:09:52;;;;;;;3.97;3.00;;;9.20;99.90;;;;;;4369221;28;655843;-70
2023/04/01 15:12:44;;;;;;;5.30;3.13;;;9.10;99.90;;;;;;4425826;28;655739;-70